KLAN/LAN METAR and TAF weather

Enter ICAO airport designator
Station Type Date Time Source
KLAN METAR 2022/01/26 06:53 UTC NOAA

KLAN 260653Z 26006KT 10SM BKN049 M12/M17 A3028 RMK AO2 SLP272 T11171167


Station Type Date Time Source
KLAN Decoded METAR 2022/01/26 06:53 UTC NOAA

CAPITAL CITY AIRPORT, MI, United States (KLAN) 42-47N 084-35W 264M
Jan 26, 2022 - 01:53 AM EST / 2022.01.26 0653 UTC
Wind: from the W (260 degrees) at 7 MPH (6 KT):0
Visibility: 10 mile(s):0
Sky conditions: mostly cloudy
Temperature: 10.9 F (-11.7 C)
Windchill: 0 F (-18 C):1
Dew Point: 1.9 F (-16.7 C)
Relative Humidity: 66%
Pressure (altimeter): 30.28 in. Hg (1025 hPa)
ob: KLAN 260653Z 26006KT 10SM BKN049 M12/M17 A3028 RMK AO2 SLP272 T11171167
cycle: 7

Station Type Date Time Source
KLAN TAF 2022/01/26 06:45 UTC NOAA

TAF KLAN 260543Z 2606/2706 29005KT P6SM OVC050
FM260900 29006KT P6SM SCT060
FM261600 23004KT P6SM BKN050
FM262100 20008KT P6SM SKC

Example: see airport list